createdAt,value
2018-12-21T00:03:17.441Z,95.70
2018-12-21T00:08:22.394Z,95.80
2018-12-21T00:13:27.248Z,95.80
2018-12-21T00:18:32.194Z,95.70
2018-12-21T00:23:37.027Z,96.00
2018-12-21T00:28:42.088Z,95.90
2018-12-21T00:33:52.165Z,95.80
2018-12-21T00:39:02.102Z,95.70
2018-12-21T00:44:15.230Z,95.40
2018-12-21T00:49:21.194Z,95.60
2018-12-21T00:54:25.982Z,95.70
2018-12-21T00:59:30.835Z,95.90
2018-12-21T01:04:35.988Z,95.90
2018-12-21T01:09:40.929Z,95.90
2018-12-21T01:14:45.923Z,95.80
2018-12-21T01:19:50.919Z,96.00
2018-12-21T01:24:55.769Z,95.70
2018-12-21T01:30:00.678Z,95.70
2018-12-21T01:35:05.753Z,95.50
2018-12-21T01:40:10.639Z,95.80
2018-12-21T01:45:15.426Z,95.90
2018-12-21T01:50:20.389Z,95.90
2018-12-21T01:55:25.375Z,95.90
2018-12-21T02:00:30.304Z,95.90
2018-12-21T02:05:35.214Z,95.70
2018-12-21T02:10:40.183Z,96.00
2018-12-21T02:15:45.156Z,95.80
2018-12-21T02:20:50.181Z,96.00
2018-12-21T02:25:55.017Z,95.80
2018-12-21T02:30:59.953Z,95.90
2018-12-21T02:36:04.952Z,96.00
2018-12-21T02:41:09.907Z,96.00
2018-12-21T02:46:14.831Z,96.10
2018-12-21T02:51:19.669Z,96.20
2018-12-21T02:56:24.515Z,96.10
2018-12-21T03:01:29.263Z,96.10
2018-12-21T03:06:34.308Z,96.10
2018-12-21T03:11:39.152Z,96.00
2018-12-21T03:16:44.072Z,96.40
2018-12-21T03:21:48.929Z,96.70
2018-12-21T03:26:53.794Z,95.90
2018-12-21T03:31:58.745Z,96.70
2018-12-21T03:37:03.495Z,96.50
2018-12-21T03:42:08.637Z,96.40
2018-12-21T03:47:13.572Z,96.20
2018-12-21T03:52:24.211Z,96.50
2018-12-21T03:57:25.197Z,96.60
2018-12-21T04:02:30.113Z,96.30
2018-12-21T04:07:34.958Z,96.30
2018-12-21T04:12:39.742Z,96.50
2018-12-21T04:17:44.599Z,96.30
2018-12-21T04:22:49.559Z,96.40
2018-12-21T04:27:54.599Z,96.20
2018-12-21T04:32:59.448Z,96.30
2018-12-21T04:38:04.362Z,96.40
2018-12-21T04:43:09.231Z,96.30
2018-12-21T04:48:14.197Z,96.60
2018-12-21T04:53:19.241Z,96.50
2018-12-21T04:58:24.183Z,96.30
2018-12-21T05:03:28.908Z,96.30
2018-12-21T05:08:33.748Z,96.50
2018-12-21T05:13:38.854Z,96.50
2018-12-21T05:18:43.764Z,96.60
2018-12-21T05:23:48.727Z,96.40
2018-12-21T05:28:53.678Z,96.50
2018-12-21T05:33:58.584Z,96.80
2018-12-21T05:39:04.023Z,96.30
2018-12-21T05:44:08.829Z,96.40
2018-12-21T05:49:13.879Z,96.70
2018-12-21T05:54:18.713Z,96.30
2018-12-21T05:59:23.551Z,96.10
2018-12-21T06:04:28.384Z,96.00
2018-12-21T06:09:33.247Z,95.80
2018-12-21T06:14:38.076Z,96.30
2018-12-21T06:19:43.536Z,96.20
2018-12-21T06:24:48.280Z,96.30
2018-12-21T06:29:53.495Z,96.10
2018-12-21T06:34:58.360Z,96.10
2018-12-21T06:40:04.018Z,95.80
2018-12-21T06:45:09.158Z,96.00
2018-12-21T06:50:14.072Z,95.70
2018-12-21T06:55:18.980Z,96.10
2018-12-21T07:00:24.079Z,96.10
2018-12-21T07:05:29.342Z,96.10
2018-12-21T07:10:34.676Z,96.00
2018-12-21T07:15:40.108Z,96.20
2018-12-21T07:20:45.072Z,96.20
2018-12-21T07:25:50.031Z,96.10
2018-12-21T07:30:55.299Z,96.30
2018-12-21T07:36:08.083Z,96.10
2018-12-21T07:41:07.215Z,96.10
2018-12-21T07:46:11.968Z,96.00
2018-12-21T07:51:16.921Z,96.00
2018-12-21T07:56:21.884Z,95.90
2018-12-21T08:01:26.863Z,96.00
2018-12-21T08:06:31.849Z,95.90
2018-12-21T08:11:36.658Z,95.80
2018-12-21T08:16:41.421Z,95.50
2018-12-21T08:21:46.280Z,95.40
2018-12-21T08:26:51.210Z,95.30
2018-12-21T08:31:56.183Z,95.20
2018-12-21T08:37:01.216Z,94.90
2018-12-21T08:42:06.169Z,94.90
2018-12-21T08:47:11.037Z,95.00
2018-12-21T08:52:15.769Z,94.90
2018-12-21T08:57:20.935Z,94.70
2018-12-21T09:02:26.011Z,93.80
2018-12-21T09:07:30.887Z,94.20
2018-12-21T09:12:35.747Z,93.90
2018-12-21T09:17:40.713Z,93.70
2018-12-21T09:22:45.768Z,93.90
2018-12-21T09:27:50.509Z,93.70
2018-12-21T09:32:55.785Z,93.30
2018-12-21T09:38:00.755Z,92.90
2018-12-21T09:43:05.550Z,92.30
2018-12-21T09:48:10.492Z,92.10
2018-12-21T09:53:15.233Z,92.80
2018-12-21T09:58:20.074Z,93.50
2018-12-21T10:03:24.960Z,93.00
2018-12-21T10:08:29.697Z,92.20
2018-12-21T10:13:34.605Z,91.90
2018-12-21T10:18:39.467Z,92.50
2018-12-21T10:23:44.300Z,93.40
2018-12-21T10:28:49.161Z,94.40
2018-12-21T10:33:54.201Z,94.90
2018-12-21T10:38:58.949Z,95.60
2018-12-21T10:44:03.919Z,97.10
2018-12-21T10:49:08.777Z,96.20
2018-12-21T10:54:13.796Z,96.70
2018-12-21T10:59:21.145Z,96.10
2018-12-21T11:04:26.164Z,96.50
2018-12-21T11:09:31.093Z,96.00
2018-12-21T11:14:35.929Z,95.80
2018-12-21T11:19:40.686Z,97.20
2018-12-21T11:24:45.647Z,96.00
2018-12-21T11:29:50.484Z,94.60
2018-12-21T11:34:55.329Z,95.90
2018-12-21T11:40:00.276Z,96.40
2018-12-21T11:45:06.059Z,95.60
2018-12-21T11:50:12.041Z,94.50
2018-12-21T11:55:16.962Z,95.60
2018-12-21T12:00:21.888Z,94.10
2018-12-21T12:05:27.309Z,94.50
2018-12-21T12:10:32.221Z,94.70
2018-12-21T12:15:37.046Z,93.90
2018-12-21T12:20:41.996Z,94.20
2018-12-21T12:25:46.844Z,94.40
2018-12-21T12:30:51.604Z,94.40
2018-12-21T12:35:56.649Z,95.20
2018-12-21T12:41:06.527Z,95.00
2018-12-21T12:46:08.717Z,95.30
2018-12-21T12:51:13.792Z,95.10
2018-12-21T12:56:18.710Z,95.00
2018-12-21T13:01:23.747Z,95.90
2018-12-21T13:06:28.672Z,96.50
2018-12-21T13:11:33.750Z,96.20
2018-12-21T13:16:38.702Z,96.60
2018-12-21T13:21:43.890Z,95.70
2018-12-21T13:26:48.990Z,95.50
2018-12-21T13:31:53.830Z,95.20
2018-12-21T13:36:58.629Z,94.90
2018-12-21T13:42:03.646Z,94.90
2018-12-21T13:47:08.579Z,95.10
2018-12-21T13:52:13.715Z,94.80
2018-12-21T13:57:19.684Z,94.70
2018-12-21T14:02:25.118Z,95.00
2018-12-21T14:07:29.994Z,95.40
2018-12-21T14:12:35.292Z,95.20
2018-12-21T14:17:40.184Z,95.30
2018-12-21T14:22:45.065Z,95.00
2018-12-21T14:27:50.335Z,95.80
2018-12-21T14:32:55.067Z,95.50
2018-12-21T14:38:01.009Z,96.20
2018-12-21T14:43:05.861Z,96.60
2018-12-21T14:48:11.034Z,96.60
2018-12-21T14:53:15.781Z,96.70
2018-12-21T14:58:20.920Z,97.00
2018-12-21T15:03:26.024Z,96.90
2018-12-21T15:08:31.039Z,96.40
2018-12-21T15:13:36.083Z,97.10
2018-12-21T15:18:40.891Z,97.50
2018-12-21T15:23:45.759Z,97.40
2018-12-21T15:28:50.747Z,96.00
2018-12-21T15:33:56.057Z,96.60
2018-12-21T15:39:01.231Z,96.80
2018-12-21T15:44:06.681Z,96.90
2018-12-21T15:49:11.856Z,97.10
2018-12-21T15:54:16.714Z,97.10
2018-12-21T15:59:21.539Z,97.00
2018-12-21T16:04:26.511Z,96.90
2018-12-21T16:09:31.429Z,97.30
2018-12-21T16:14:36.772Z,97.30
2018-12-21T16:19:41.858Z,96.80
2018-12-21T16:24:46.779Z,97.30
2018-12-21T16:29:51.749Z,97.40
2018-12-21T16:34:56.582Z,97.30
2018-12-21T16:40:01.509Z,97.20
2018-12-21T16:45:08.257Z,98.00
2018-12-21T16:50:13.956Z,98.00
2018-12-21T16:55:18.938Z,97.80
2018-12-21T17:00:23.800Z,98.00
2018-12-21T17:05:28.686Z,98.40
2018-12-21T17:10:33.675Z,98.90
2018-12-21T17:15:38.485Z,99.20
2018-12-21T17:20:43.358Z,99.90
2018-12-21T17:25:48.207Z,99.90
2018-12-21T17:30:53.134Z,98.70
2018-12-21T17:35:58.422Z,98.20
2018-12-21T17:41:03.981Z,97.50
2018-12-21T17:46:08.922Z,96.70
2018-12-21T17:51:14.049Z,96.50
2018-12-21T17:56:19.012Z,95.40
2018-12-21T18:01:24.820Z,94.00
2018-12-21T18:06:29.792Z,94.10
2018-12-21T18:11:34.945Z,94.20
2018-12-21T18:16:39.843Z,95.40
2018-12-21T18:21:53.714Z,94.20
2018-12-21T18:26:58.747Z,95.00
2018-12-21T18:32:23.313Z,93.20
2018-12-21T18:37:28.640Z,93.60
2018-12-21T18:42:33.655Z,93.60
2018-12-21T18:47:38.789Z,94.10
2018-12-21T18:52:43.871Z,94.20
2018-12-21T18:57:48.796Z,94.30
2018-12-21T19:02:53.782Z,94.10
2018-12-21T19:07:58.734Z,93.60
2018-12-21T19:13:03.778Z,94.10
2018-12-21T19:18:08.745Z,93.70
2018-12-21T19:23:13.645Z,93.70
2018-12-21T19:28:18.670Z,93.40
2018-12-21T19:33:23.847Z,93.70
2018-12-21T19:38:28.761Z,94.40
2018-12-21T19:43:33.721Z,94.50
2018-12-21T19:48:38.796Z,93.80
2018-12-21T19:53:43.745Z,93.40
2018-12-21T19:58:49.837Z,92.50
2018-12-21T20:03:54.958Z,92.10
2018-12-21T20:08:59.703Z,91.30
2018-12-21T20:14:04.625Z,91.20
2018-12-21T20:19:09.602Z,90.50
2018-12-21T20:24:14.735Z,90.40
2018-12-21T20:29:19.672Z,90.20
2018-12-21T20:34:24.762Z,90.40
2018-12-21T20:39:30.212Z,90.70
2018-12-21T20:44:35.156Z,91.20
2018-12-21T20:49:40.128Z,90.80
2018-12-21T20:54:46.060Z,90.80
2018-12-21T20:59:51.925Z,90.60
2018-12-21T21:04:56.674Z,90.10
2018-12-21T21:10:01.740Z,90.70
2018-12-21T21:15:08.341Z,90.70
2018-12-21T21:20:15.186Z,88.30
2018-12-21T21:25:20.352Z,87.10
2018-12-21T21:30:25.757Z,90.00
2018-12-21T21:35:30.883Z,90.40
2018-12-21T21:40:36.505Z,90.50
2018-12-21T21:45:41.385Z,90.90
2018-12-21T21:50:46.435Z,91.80
2018-12-21T21:55:51.443Z,92.10
2018-12-21T22:00:57.781Z,92.00
2018-12-21T22:06:02.901Z,91.40
2018-12-21T22:11:08.121Z,90.90
2018-12-21T22:16:13.133Z,90.30
2018-12-21T22:21:18.219Z,88.30
2018-12-21T22:26:23.231Z,88.00
2018-12-21T22:31:28.175Z,87.30
2018-12-21T22:36:33.143Z,88.40
2018-12-21T22:41:38.270Z,88.80
2018-12-21T22:46:43.226Z,90.00
2018-12-21T22:51:48.170Z,90.10
2018-12-21T22:56:53.174Z,90.90
2018-12-21T23:01:57.961Z,91.70
2018-12-21T23:07:02.993Z,91.90
2018-12-21T23:12:07.757Z,91.20
2018-12-21T23:17:12.903Z,91.20
2018-12-21T23:22:17.935Z,91.60
2018-12-21T23:27:22.998Z,91.00
2018-12-21T23:32:27.966Z,90.20
2018-12-21T23:37:32.886Z,90.00
2018-12-21T23:42:37.841Z,87.90
2018-12-21T23:47:42.678Z,87.30
2018-12-21T23:52:47.610Z,89.30
2018-12-21T23:57:52.581Z,89.40
